createdAt,value
2019-02-24T00:01:33.170Z,2.80
2019-02-24T00:04:02.161Z,2.80
2019-02-24T00:06:31.171Z,2.80
2019-02-24T00:09:00.179Z,2.70
2019-02-24T00:11:29.107Z,2.70
2019-02-24T00:13:58.106Z,2.60
2019-02-24T00:16:27.131Z,2.60
2019-02-24T00:18:56.142Z,2.60
2019-02-24T00:21:24.993Z,2.60
2019-02-24T00:23:53.994Z,2.60
2019-02-24T00:26:22.922Z,2.50
2019-02-24T00:28:51.781Z,2.50
2019-02-24T00:31:20.772Z,2.40
2019-02-24T00:33:49.689Z,2.40
2019-02-24T00:36:18.623Z,2.40
2019-02-24T00:38:47.851Z,2.30
2019-02-24T00:41:16.775Z,2.30
2019-02-24T00:43:45.710Z,2.20
2019-02-24T00:46:14.651Z,2.20
2019-02-24T00:48:43.617Z,2.30
2019-02-24T00:51:12.620Z,2.20
2019-02-24T00:53:41.477Z,2.10
2019-02-24T00:56:11.306Z,2.10
2019-02-24T00:58:40.485Z,2.10
2019-02-24T01:01:09.446Z,2.00
2019-02-24T01:03:38.410Z,2.00
2019-02-24T01:06:07.484Z,2.00
2019-02-24T01:08:36.505Z,2.00
2019-02-24T01:11:05.568Z,2.00
2019-02-24T01:13:34.429Z,2.00
2019-02-24T01:16:03.522Z,1.80
2019-02-24T01:18:32.452Z,1.90
2019-02-24T01:21:01.366Z,1.90
2019-02-24T01:23:30.632Z,1.80
2019-02-24T01:25:59.554Z,1.80
2019-02-24T01:28:28.401Z,1.80
2019-02-24T01:30:57.258Z,1.70
2019-02-24T01:33:26.274Z,1.80
2019-02-24T01:35:55.195Z,1.70
2019-02-24T01:38:24.139Z,1.70
2019-02-24T01:40:53.066Z,1.70
2019-02-24T01:43:21.901Z,1.60
2019-02-24T01:45:50.941Z,1.60
2019-02-24T01:48:21.158Z,1.50
2019-02-24T01:50:50.142Z,1.50
2019-02-24T01:53:19.089Z,1.50
2019-02-24T01:55:48.373Z,1.60
2019-02-24T01:58:17.474Z,1.50
2019-02-24T02:00:46.426Z,1.50
2019-02-24T02:03:15.371Z,1.50
2019-02-24T02:05:44.421Z,1.50
2019-02-24T02:08:13.436Z,1.60
2019-02-24T02:10:42.367Z,1.50
2019-02-24T02:13:11.302Z,1.50
2019-02-24T02:15:40.321Z,1.40
2019-02-24T02:18:09.256Z,1.40
2019-02-24T02:20:38.109Z,1.30
2019-02-24T02:23:07.118Z,1.30
2019-02-24T02:25:36.049Z,1.40
2019-02-24T02:28:05.047Z,1.40
2019-02-24T02:30:34.045Z,1.40
2019-02-24T02:33:02.967Z,1.30
2019-02-24T02:35:31.884Z,1.40
2019-02-24T02:38:00.849Z,1.40
2019-02-24T02:40:29.698Z,1.40
2019-02-24T02:42:58.620Z,1.40
2019-02-24T02:45:27.582Z,1.40
2019-02-24T02:47:56.506Z,1.30
2019-02-24T02:50:25.419Z,1.20
2019-02-24T02:52:54.350Z,1.20
2019-02-24T02:55:23.354Z,1.10
2019-02-24T02:57:52.199Z,1.10
2019-02-24T03:00:29.809Z,1.10
2019-02-24T03:02:58.718Z,1.10
2019-02-24T03:05:27.751Z,1.00
2019-02-24T03:08:01.427Z,1.00
2019-02-24T03:10:30.446Z,0.90
2019-02-24T03:13:01.146Z,1.00
2019-02-24T03:15:30.086Z,1.00
2019-02-24T03:17:58.993Z,0.80
2019-02-24T03:20:28.229Z,0.80
2019-02-24T03:22:57.107Z,0.70
2019-02-24T03:25:26.097Z,0.80
2019-02-24T03:27:54.947Z,0.70
2019-02-24T03:30:23.967Z,0.70
2019-02-24T03:32:52.887Z,0.70
2019-02-24T03:35:21.751Z,0.70
2019-02-24T03:37:50.615Z,0.60
2019-02-24T03:40:19.866Z,0.50
2019-02-24T03:42:48.866Z,0.40
2019-02-24T03:45:17.870Z,0.30
2019-02-24T03:47:48.895Z,0.30
2019-02-24T03:50:17.821Z,0.20
2019-02-24T03:52:46.897Z,0.20
2019-02-24T03:55:15.831Z,0.20
2019-02-24T03:57:44.809Z,0.10
2019-02-24T04:00:13.870Z,0.10
2019-02-24T04:02:42.874Z,0.20
2019-02-24T04:05:11.836Z,0.20
2019-02-24T04:07:41.188Z,0.00
2019-02-24T04:10:10.195Z,0.00
2019-02-24T04:12:39.269Z,0.00
2019-02-24T04:15:08.360Z,0.00
2019-02-24T04:17:37.414Z,-0.10
2019-02-24T04:20:06.447Z,-0.10
2019-02-24T04:22:35.420Z,-0.20
2019-02-24T04:25:04.489Z,-0.30
2019-02-24T04:27:33.427Z,-0.20
2019-02-24T04:30:02.432Z,-0.20
2019-02-24T04:32:31.349Z,-0.30
2019-02-24T04:35:00.674Z,-0.20
2019-02-24T04:37:29.641Z,-0.20
2019-02-24T04:39:58.510Z,-0.30
2019-02-24T04:42:27.377Z,-0.40
2019-02-24T04:44:56.243Z,-0.40
2019-02-24T04:47:25.151Z,-0.40
2019-02-24T04:49:54.025Z,-0.40
2019-02-24T04:52:22.985Z,-0.50
2019-02-24T04:54:51.839Z,-0.60
2019-02-24T04:57:20.770Z,-0.50
2019-02-24T04:59:49.984Z,-0.50
2019-02-24T05:02:18.974Z,-0.50
2019-02-24T05:04:47.826Z,-0.50
2019-02-24T05:07:16.808Z,-0.60
2019-02-24T05:09:45.757Z,-0.60
2019-02-24T05:12:14.956Z,-0.60
2019-02-24T05:14:43.833Z,-0.70
2019-02-24T05:17:12.717Z,-0.70
2019-02-24T05:19:41.586Z,-0.80
2019-02-24T05:22:10.554Z,-0.80
2019-02-24T05:24:39.481Z,-0.80
2019-02-24T05:27:08.429Z,-0.80
2019-02-24T05:29:45.359Z,-0.80
2019-02-24T05:32:08.214Z,-0.80
2019-02-24T05:34:37.166Z,-0.80
2019-02-24T05:37:06.413Z,-0.80
2019-02-24T05:39:35.753Z,-0.90
2019-02-24T05:42:04.762Z,-0.90
2019-02-24T05:44:33.665Z,-0.90
2019-02-24T05:47:02.509Z,-0.90
2019-02-24T05:49:31.698Z,-0.90
2019-02-24T05:52:00.734Z,-1.00
2019-02-24T05:54:29.665Z,-1.00
2019-02-24T05:56:59.009Z,-1.00
2019-02-24T05:59:27.928Z,-1.00
2019-02-24T06:01:56.866Z,-1.00
2019-02-24T06:04:25.875Z,-1.00
2019-02-24T06:06:54.841Z,-1.00
2019-02-24T06:09:23.698Z,-1.10
2019-02-24T06:11:52.630Z,-1.10
2019-02-24T06:14:21.545Z,-1.00
2019-02-24T06:16:50.499Z,-1.00
2019-02-24T06:19:20.845Z,-1.00
2019-02-24T06:21:49.778Z,-1.00
2019-02-24T06:24:18.798Z,-1.00
2019-02-24T06:26:47.988Z,-1.00
2019-02-24T06:29:16.918Z,-1.00
2019-02-24T06:31:45.900Z,-1.10
2019-02-24T06:34:14.823Z,-1.00
2019-02-24T06:36:43.685Z,-1.00
2019-02-24T06:39:12.605Z,-1.00
2019-02-24T06:41:41.853Z,-0.90
2019-02-24T06:44:10.727Z,-0.90
2019-02-24T06:46:39.665Z,-0.90
2019-02-24T06:49:08.557Z,-0.90
2019-02-24T06:51:37.571Z,-0.90
2019-02-24T06:54:06.638Z,-0.90
2019-02-24T06:56:35.560Z,-0.80
2019-02-24T06:59:05.545Z,-0.80
2019-02-24T07:01:34.525Z,-0.80
2019-02-24T07:04:03.581Z,-0.70
2019-02-24T07:06:32.517Z,-0.70
2019-02-24T07:09:01.492Z,-0.70
2019-02-24T07:11:30.497Z,-0.60
2019-02-24T07:13:59.375Z,-0.70
2019-02-24T07:16:28.371Z,-0.60
2019-02-24T07:18:57.298Z,-0.60
2019-02-24T07:21:26.757Z,-0.60
2019-02-24T07:23:55.778Z,-0.60
2019-02-24T07:26:24.700Z,-0.60
2019-02-24T07:28:53.699Z,-0.60
2019-02-24T07:31:22.726Z,-0.50
2019-02-24T07:33:51.651Z,-0.40
2019-02-24T07:36:20.604Z,0.30
2019-02-24T07:38:49.634Z,1.10
2019-02-24T07:41:18.906Z,2.00
2019-02-24T07:43:47.846Z,2.90
2019-02-24T07:46:16.710Z,4.00
2019-02-24T07:48:45.702Z,4.70
2019-02-24T07:51:14.737Z,5.60
2019-02-24T07:53:44.037Z,6.10
2019-02-24T07:56:12.963Z,6.90
2019-02-24T07:58:41.992Z,7.70
2019-02-24T08:01:10.945Z,8.60
2019-02-24T08:03:39.812Z,9.20
2019-02-24T08:06:08.860Z,9.90
2019-02-24T08:08:37.697Z,10.60
2019-02-24T08:11:06.721Z,11.20
2019-02-24T08:13:35.762Z,11.60
2019-02-24T08:16:04.747Z,12.30
2019-02-24T08:18:33.590Z,12.90
2019-02-24T08:21:02.584Z,13.30
2019-02-24T08:23:32.020Z,13.80
2019-02-24T08:26:01.259Z,14.30
2019-02-24T08:28:30.250Z,14.80
2019-02-24T08:30:59.186Z,14.90
2019-02-24T08:33:28.191Z,15.50
2019-02-24T08:35:57.165Z,15.80
2019-02-24T08:38:26.127Z,15.80
2019-02-24T08:40:55.153Z,15.90
2019-02-24T08:43:24.122Z,16.20
2019-02-24T08:45:53.579Z,16.40
2019-02-24T08:48:22.440Z,17.20
2019-02-24T08:50:51.346Z,18.00
2019-02-24T08:53:20.174Z,18.40
2019-02-24T08:55:49.127Z,18.30
2019-02-24T08:58:18.520Z,18.50
2019-02-24T09:00:50.972Z,19.00
2019-02-24T09:03:18.147Z,18.70
2019-02-24T09:05:47.198Z,19.20
2019-02-24T09:08:16.124Z,19.50
2019-02-24T09:10:45.178Z,19.80
2019-02-24T09:13:17.225Z,20.50
2019-02-24T09:15:46.546Z,20.80
2019-02-24T09:18:15.477Z,20.80
2019-02-24T09:20:44.374Z,21.20
2019-02-24T09:23:13.277Z,21.20
2019-02-24T09:25:42.647Z,21.80
2019-02-24T09:28:11.686Z,21.80
2019-02-24T09:30:41.708Z,22.00
2019-02-24T09:33:10.749Z,21.70
2019-02-24T09:35:39.898Z,21.90
2019-02-24T09:38:08.892Z,21.80
2019-02-24T09:40:38.172Z,21.60
2019-02-24T09:43:07.122Z,21.40
2019-02-24T09:45:36.057Z,21.40
2019-02-24T09:48:05.092Z,21.90
2019-02-24T09:50:34.170Z,21.40
2019-02-24T09:53:03.034Z,21.30
2019-02-24T09:55:31.898Z,21.70
2019-02-24T09:58:00.761Z,22.40
2019-02-24T10:00:29.779Z,22.80
2019-02-24T10:02:58.723Z,23.60
2019-02-24T10:05:27.666Z,24.00
2019-02-24T10:07:56.673Z,23.90
2019-02-24T10:10:25.615Z,24.30
2019-02-24T10:12:54.821Z,24.50
2019-02-24T10:15:23.840Z,24.60
2019-02-24T10:17:52.728Z,24.80
2019-02-24T10:20:21.677Z,24.70
2019-02-24T10:22:51.604Z,25.00
2019-02-24T10:25:20.643Z,25.50
2019-02-24T10:27:49.910Z,25.70
2019-02-24T10:30:19.211Z,26.00
2019-02-24T10:32:48.298Z,26.30
2019-02-24T10:35:17.460Z,26.80
2019-02-24T10:37:46.402Z,26.30
2019-02-24T10:40:15.467Z,26.30
2019-02-24T10:42:44.405Z,26.70
2019-02-24T10:45:13.962Z,26.80
2019-02-24T10:47:42.974Z,27.30
2019-02-24T10:50:12.947Z,27.30
2019-02-24T10:52:41.960Z,27.00
2019-02-24T10:55:11.078Z,26.70
2019-02-24T10:57:40.268Z,27.30
2019-02-24T11:00:11.447Z,27.50
2019-02-24T11:02:40.390Z,27.30
2019-02-24T11:05:09.776Z,27.60
2019-02-24T11:07:38.777Z,27.60
2019-02-24T11:10:08.215Z,27.90
2019-02-24T11:12:37.555Z,28.30
2019-02-24T11:15:06.990Z,27.80
2019-02-24T11:17:35.833Z,28.30
2019-02-24T11:20:06.278Z,28.20
2019-02-24T11:22:35.414Z,28.50
2019-02-24T11:25:04.522Z,28.10
2019-02-24T11:27:33.503Z,28.10
2019-02-24T11:30:02.561Z,27.40
2019-02-24T11:32:31.561Z,26.80
2019-02-24T11:35:00.436Z,26.50
2019-02-24T11:37:29.554Z,26.00
2019-02-24T11:39:58.411Z,25.30
2019-02-24T11:42:27.430Z,24.60
2019-02-24T11:44:56.423Z,23.80
2019-02-24T11:47:25.533Z,23.40
2019-02-24T11:49:54.418Z,23.10
2019-02-24T11:52:23.285Z,22.30
2019-02-24T11:54:52.229Z,21.60
2019-02-24T11:57:21.200Z,21.10
2019-02-24T11:59:50.078Z,20.60
2019-02-24T12:02:19.153Z,20.30
2019-02-24T12:04:48.102Z,20.10
2019-02-24T12:07:16.930Z,19.70
2019-02-24T12:09:45.858Z,19.40
2019-02-24T12:12:15.494Z,18.90
2019-02-24T12:14:44.855Z,18.70
2019-02-24T12:17:13.794Z,18.40
2019-02-24T12:19:42.661Z,17.90
2019-02-24T12:22:11.667Z,17.90
2019-02-24T12:24:40.582Z,17.70
2019-02-24T12:27:09.525Z,17.60
2019-02-24T12:29:38.446Z,17.40
2019-02-24T12:32:07.374Z,17.20
2019-02-24T12:34:36.298Z,17.10
2019-02-24T12:37:05.222Z,16.80
2019-02-24T12:39:34.159Z,16.80
2019-02-24T12:42:03.102Z,16.80
2019-02-24T12:44:31.945Z,16.70
2019-02-24T12:47:00.854Z,16.60
2019-02-24T12:49:29.814Z,16.20
2019-02-24T12:51:59.206Z,16.10
2019-02-24T12:54:28.170Z,15.90
2019-02-24T12:56:57.106Z,15.70
2019-02-24T12:59:26.074Z,15.40
2019-02-24T13:01:54.982Z,15.40
2019-02-24T13:04:24.270Z,15.30
2019-02-24T13:06:53.922Z,15.50
2019-02-24T13:09:22.831Z,15.60
2019-02-24T13:11:51.773Z,15.70
2019-02-24T13:14:20.723Z,15.60
2019-02-24T13:16:49.658Z,15.80
2019-02-24T13:19:18.518Z,15.80
2019-02-24T13:21:47.514Z,15.80
2019-02-24T13:24:16.360Z,15.80
2019-02-24T13:26:49.117Z,15.80
2019-02-24T13:29:26.953Z,15.90
2019-02-24T13:31:56.129Z,15.80
2019-02-24T13:34:25.062Z,15.70
2019-02-24T13:36:53.973Z,15.70
2019-02-24T13:39:22.847Z,15.70
2019-02-24T13:41:51.758Z,15.70
2019-02-24T13:44:20.733Z,15.50
2019-02-24T13:46:50.081Z,15.50
2019-02-24T13:49:19.001Z,15.50
2019-02-24T13:51:47.917Z,15.40
2019-02-24T13:54:16.941Z,15.50
2019-02-24T13:56:45.785Z,15.50
2019-02-24T13:59:14.690Z,15.50
2019-02-24T14:01:43.640Z,15.60
2019-02-24T14:04:12.549Z,15.60
2019-02-24T14:06:41.475Z,15.50
2019-02-24T14:09:10.497Z,15.50
2019-02-24T14:11:39.491Z,15.50
2019-02-24T14:14:09.896Z,15.40
2019-02-24T14:16:39.106Z,15.40
2019-02-24T14:19:08.078Z,15.30
2019-02-24T14:21:36.911Z,15.30
2019-02-24T14:24:05.916Z,15.20
2019-02-24T14:26:34.817Z,15.20
2019-02-24T14:29:03.736Z,15.20
2019-02-24T14:31:33.062Z,15.10
2019-02-24T14:34:01.945Z,15.00
2019-02-24T14:36:30.874Z,15.10
2019-02-24T14:38:59.793Z,14.90
2019-02-24T14:41:28.797Z,14.90
2019-02-24T14:43:57.642Z,14.90
2019-02-24T14:46:26.705Z,14.90
2019-02-24T14:48:55.654Z,14.80
2019-02-24T14:51:24.493Z,14.80
2019-02-24T14:53:53.769Z,14.70
2019-02-24T14:56:22.685Z,14.70
2019-02-24T14:58:51.677Z,14.70
2019-02-24T15:01:20.671Z,14.70
2019-02-24T15:03:49.582Z,14.60
2019-02-24T15:06:18.578Z,14.60
2019-02-24T15:08:47.527Z,14.60
2019-02-24T15:11:16.424Z,14.60
2019-02-24T15:13:45.280Z,14.50
2019-02-24T15:16:14.201Z,14.50
2019-02-24T15:18:43.190Z,14.50
2019-02-24T15:21:13.390Z,14.50
2019-02-24T15:23:42.621Z,14.40
2019-02-24T15:26:11.543Z,14.40
2019-02-24T15:28:40.918Z,14.40
2019-02-24T15:31:09.802Z,14.40
2019-02-24T15:33:39.234Z,14.40
2019-02-24T15:36:08.129Z,14.30
2019-02-24T15:38:37.067Z,14.30
2019-02-24T15:41:06.006Z,14.30
2019-02-24T15:43:34.921Z,14.30
2019-02-24T15:46:04.148Z,14.20
2019-02-24T15:48:32.981Z,14.20
2019-02-24T15:51:02.399Z,14.10
2019-02-24T15:53:31.255Z,14.10
2019-02-24T15:56:01.801Z,14.10
2019-02-24T15:58:30.729Z,14.10
2019-02-24T16:00:59.698Z,14.00
2019-02-24T16:03:28.626Z,14.00
2019-02-24T16:05:58.031Z,13.90
2019-02-24T16:08:27.041Z,13.90
2019-02-24T16:10:55.951Z,13.80
2019-02-24T16:13:24.877Z,13.70
2019-02-24T16:15:53.818Z,13.70
2019-02-24T16:18:22.658Z,13.70
2019-02-24T16:20:51.648Z,13.70
2019-02-24T16:23:20.514Z,13.60
2019-02-24T16:25:49.519Z,13.50
2019-02-24T16:28:18.414Z,13.40
2019-02-24T16:30:47.426Z,13.50
2019-02-24T16:33:16.349Z,13.40
2019-02-24T16:35:45.274Z,13.30
2019-02-24T16:38:14.177Z,13.30
2019-02-24T16:40:43.102Z,13.20
2019-02-24T16:43:12.106Z,13.10
2019-02-24T16:45:41.053Z,13.10
2019-02-24T16:48:09.914Z,13.00
2019-02-24T16:50:38.910Z,12.90
2019-02-24T16:53:07.938Z,12.90
2019-02-24T16:55:36.784Z,12.80
2019-02-24T16:58:05.617Z,12.70
2019-02-24T17:00:34.729Z,12.70
2019-02-24T17:03:03.833Z,12.50
2019-02-24T17:05:33.294Z,12.40
2019-02-24T17:08:02.385Z,12.40
2019-02-24T17:10:31.394Z,12.30
2019-02-24T17:13:01.844Z,12.20
2019-02-24T17:15:31.029Z,12.10
2019-02-24T17:18:00.022Z,12.00
2019-02-24T17:20:29.014Z,11.90
2019-02-24T17:22:57.941Z,11.80
2019-02-24T17:25:26.898Z,11.80
2019-02-24T17:27:56.117Z,11.60
2019-02-24T17:30:25.312Z,11.50
2019-02-24T17:32:54.273Z,11.40
2019-02-24T17:35:23.276Z,11.40
2019-02-24T17:37:52.275Z,11.30
2019-02-24T17:40:21.327Z,11.30
2019-02-24T17:42:50.281Z,11.20
2019-02-24T17:45:19.367Z,11.20
2019-02-24T17:47:48.327Z,11.10
2019-02-24T17:50:17.288Z,10.90
2019-02-24T17:52:46.349Z,10.90
2019-02-24T17:55:15.350Z,10.90
2019-02-24T17:57:44.356Z,10.90
2019-02-24T18:00:16.876Z,10.80
2019-02-24T18:02:45.818Z,10.80
2019-02-24T18:05:14.818Z,10.70
2019-02-24T18:07:43.775Z,10.70
2019-02-24T18:10:12.797Z,10.70
2019-02-24T18:12:41.710Z,10.60
2019-02-24T18:15:11.242Z,10.50
2019-02-24T18:17:40.233Z,10.50
2019-02-24T18:20:10.147Z,10.50
2019-02-24T18:22:39.166Z,10.40
2019-02-24T18:25:09.459Z,10.30
2019-02-24T18:27:38.462Z,10.30
2019-02-24T18:30:11.122Z,10.30
2019-02-24T18:32:40.047Z,10.20
2019-02-24T18:35:11.103Z,10.20
2019-02-24T18:37:40.066Z,10.00
2019-02-24T18:40:10.182Z,9.90
2019-02-24T18:42:39.593Z,9.80
2019-02-24T18:45:09.454Z,9.70
2019-02-24T18:47:38.904Z,9.60
2019-02-24T18:50:08.894Z,9.60
2019-02-24T18:52:38.747Z,9.60
2019-02-24T18:55:08.315Z,9.50
2019-02-24T18:57:37.210Z,9.60
2019-02-24T19:00:07.347Z,9.60
2019-02-24T19:02:36.662Z,9.70
2019-02-24T19:05:06.177Z,9.70
2019-02-24T19:07:35.204Z,9.60
2019-02-24T19:10:04.970Z,9.60
2019-02-24T19:12:33.965Z,9.50
2019-02-24T19:15:03.373Z,9.50
2019-02-24T19:17:32.370Z,9.50
2019-02-24T19:20:01.479Z,9.50
2019-02-24T19:22:30.912Z,9.60
2019-02-24T19:24:59.871Z,9.60
2019-02-24T19:27:28.795Z,9.50
2019-02-24T19:29:57.734Z,9.50
2019-02-24T19:32:27.061Z,9.50
2019-02-24T19:34:56.058Z,9.50
2019-02-24T19:37:25.015Z,9.40
2019-02-24T19:39:53.983Z,9.40
2019-02-24T19:42:23.303Z,9.30
2019-02-24T19:44:52.403Z,9.30
2019-02-24T19:47:21.248Z,9.30
2019-02-24T19:49:50.197Z,9.20
2019-02-24T19:52:19.389Z,9.10
2019-02-24T19:54:48.344Z,8.90
2019-02-24T19:57:17.266Z,8.80
2019-02-24T19:59:46.234Z,8.80
2019-02-24T20:02:15.499Z,8.70
2019-02-24T20:04:44.879Z,8.40
2019-02-24T20:07:14.009Z,8.30
2019-02-24T20:09:43.009Z,8.20
2019-02-24T20:12:12.026Z,8.20
2019-02-24T20:14:41.066Z,8.10
2019-02-24T20:17:10.285Z,8.10
2019-02-24T20:19:39.342Z,8.00
2019-02-24T20:22:08.320Z,7.90
2019-02-24T20:24:37.330Z,7.70
2019-02-24T20:27:06.452Z,7.70
2019-02-24T20:29:35.708Z,7.50
2019-02-24T20:32:04.806Z,7.50
2019-02-24T20:34:34.029Z,7.40
2019-02-24T20:37:02.881Z,7.40
2019-02-24T20:39:31.874Z,7.40
2019-02-24T20:42:00.732Z,7.50
2019-02-24T20:44:29.667Z,7.40
2019-02-24T20:46:58.680Z,7.30
2019-02-24T20:49:27.631Z,7.20
2019-02-24T20:51:56.838Z,7.20
2019-02-24T20:54:25.746Z,7.20
2019-02-24T20:56:54.592Z,7.20
2019-02-24T20:59:23.518Z,7.20
2019-02-24T21:01:52.508Z,7.20
2019-02-24T21:04:21.341Z,7.20
2019-02-24T21:06:50.285Z,7.20
2019-02-24T21:09:19.127Z,7.10
2019-02-24T21:11:48.129Z,7.10
2019-02-24T21:14:17.013Z,7.10
2019-02-24T21:16:45.940Z,7.10
2019-02-24T21:19:14.859Z,7.00
2019-02-24T21:21:44.196Z,7.00
2019-02-24T21:24:13.443Z,7.00
2019-02-24T21:26:42.297Z,6.90
2019-02-24T21:29:11.362Z,6.90
2019-02-24T21:31:40.622Z,6.80
2019-02-24T21:34:09.618Z,6.80
2019-02-24T21:36:38.642Z,6.80
2019-02-24T21:39:08.397Z,6.70
2019-02-24T21:41:37.234Z,6.60
2019-02-24T21:44:06.176Z,6.40
2019-02-24T21:46:35.022Z,6.40
2019-02-24T21:49:04.121Z,6.30
2019-02-24T21:51:33.154Z,6.20
2019-02-24T21:54:02.077Z,6.20
2019-02-24T21:56:31.153Z,6.10
2019-02-24T21:59:00.178Z,6.10
2019-02-24T22:01:29.219Z,6.00
2019-02-24T22:03:58.233Z,6.00
2019-02-24T22:06:27.254Z,6.00
2019-02-24T22:08:56.092Z,5.90
2019-02-24T22:11:24.937Z,5.80
2019-02-24T22:13:54.306Z,5.80
2019-02-24T22:16:23.214Z,5.70
2019-02-24T22:18:52.128Z,5.70
2019-02-24T22:21:21.073Z,5.60
2019-02-24T22:23:49.950Z,5.50
2019-02-24T22:26:18.942Z,5.40
2019-02-24T22:28:47.876Z,5.40
2019-02-24T22:31:16.898Z,5.40
2019-02-24T22:33:45.777Z,5.40
2019-02-24T22:36:14.863Z,5.30
2019-02-24T22:38:43.714Z,5.20
2019-02-24T22:41:12.578Z,5.20
2019-02-24T22:43:41.506Z,5.10
2019-02-24T22:46:10.417Z,5.00
2019-02-24T22:48:39.330Z,5.10
2019-02-24T22:51:08.271Z,5.10
2019-02-24T22:53:37.249Z,5.10
2019-02-24T22:56:06.246Z,5.00
2019-02-24T22:58:35.134Z,5.00
2019-02-24T23:01:14.940Z,4.90
2019-02-24T23:03:46.196Z,4.90
2019-02-24T23:06:15.496Z,4.90
2019-02-24T23:08:44.500Z,4.90
2019-02-24T23:11:13.595Z,4.90
2019-02-24T23:13:42.610Z,4.80
2019-02-24T23:16:11.601Z,4.80
2019-02-24T23:18:40.941Z,4.70
2019-02-24T23:21:09.853Z,4.70
2019-02-24T23:23:39.034Z,4.50
2019-02-24T23:26:08.026Z,4.60
2019-02-24T23:28:37.195Z,4.60
2019-02-24T23:31:06.175Z,4.50
2019-02-24T23:33:35.137Z,4.40
2019-02-24T23:36:04.123Z,4.40
2019-02-24T23:38:33.037Z,4.40
2019-02-24T23:41:02.361Z,4.40
2019-02-24T23:43:31.422Z,4.40
2019-02-24T23:46:00.340Z,4.40
2019-02-24T23:48:29.257Z,4.30
2019-02-24T23:50:58.094Z,4.20
2019-02-24T23:53:27.097Z,4.10
2019-02-24T23:55:56.092Z,4.10
2019-02-24T23:58:25.100Z,4.10
